sensor_id;sensor_type;location;lat;lon;timestamp;pressure;altitude;pressure_sealevel;temperature;humidity
57376;BME280;44805;45.048;5.062;2023-05-03T00:00:00;99996.59;;;12.45;73.31
57376;BME280;44805;45.048;5.062;2023-05-03T00:02:25;100055.53;;;12.72;74.11
57376;BME280;44805;45.048;5.062;2023-05-03T00:04:51;100023.13;;;12.44;74.41
57376;BME280;44805;45.048;5.062;2023-05-03T00:07:18;100068.09;;;12.70;73.35
57376;BME280;44805;45.048;5.062;2023-05-03T00:09:43;99957.25;;;12.16;73.14
57376;BME280;44805;45.048;5.062;2023-05-03T00:12:10;100059.75;;;12.82;73.32
57376;BME280;44805;45.048;5.062;2023-05-03T00:14:35;100049.28;;;12.73;72.90
57376;BME280;44805;45.048;5.062;2023-05-03T00:17:01;100046.63;;;12.73;73.39
57376;BME280;44805;45.048;5.062;2023-05-03T00:19:26;100044.47;;;12.68;73.19
57376;BME280;44805;45.048;5.062;2023-05-03T00:21:54;100044.03;;;12.55;73.56
57376;BME280;44805;45.048;5.062;2023-05-03T00:24:19;99967.38;;;12.03;74.12
57376;BME280;44805;45.048;5.062;2023-05-03T00:26:45;99977.78;;;12.04;74.56
57376;BME280;44805;45.048;5.062;2023-05-03T00:29:10;100024.53;;;12.30;74.49
57376;BME280;44805;45.048;5.062;2023-05-03T00:31:36;99969.63;;;11.98;75.19
57376;BME280;44805;45.048;5.062;2023-05-03T00:34:01;99962.19;;;11.93;75.44
57376;BME280;44805;45.048;5.062;2023-05-03T00:36:26;99992.25;;;12.18;74.71
57376;BME280;44805;45.048;5.062;2023-05-03T00:38:52;100034.00;;;12.41;75.06
57376;BME280;44805;45.048;5.062;2023-05-03T00:41:18;99940.28;;;11.83;75.46
57376;BME280;44805;45.048;5.062;2023-05-03T00:43:43;100003.13;;;12.15;76.24
57376;BME280;44805;45.048;5.062;2023-05-03T00:46:09;99929.53;;;11.76;75.84
57376;BME280;44805;45.048;5.062;2023-05-03T00:48:34;99987.16;;;11.99;76.26
57376;BME280;44805;45.048;5.062;2023-05-03T00:54:22;100022.34;;;12.25;76.39
57376;BME280;44805;45.048;5.062;2023-05-03T00:56:47;100003.00;;;11.99;76.58
57376;BME280;44805;45.048;5.062;2023-05-03T00:59:13;99977.50;;;11.89;77.04
57376;BME280;44805;45.048;5.062;2023-05-03T01:01:39;99994.59;;;12.03;77.36
57376;BME280;44805;45.048;5.062;2023-05-03T01:04:05;100013.59;;;12.25;76.95
57376;BME280;44805;45.048;5.062;2023-05-03T01:09:14;99943.59;;;11.85;76.42
57376;BME280;44805;45.048;5.062;2023-05-03T01:11:56;100007.72;;;12.13;77.25
57376;BME280;44805;45.048;5.062;2023-05-03T01:14:42;100002.59;;;12.11;77.53
57376;BME280;44805;45.048;5.062;2023-05-03T01:17:13;99988.16;;;11.70;78.84
57376;BME280;44805;45.048;5.062;2023-05-03T01:19:50;100004.19;;;11.86;78.77
57376;BME280;44805;45.048;5.062;2023-05-03T01:22:41;99999.72;;;11.87;78.67
57376;BME280;44805;45.048;5.062;2023-05-03T01:25:12;99958.56;;;11.76;77.81
57376;BME280;44805;45.048;5.062;2023-05-03T01:27:39;99929.81;;;11.37;78.00
57376;BME280;44805;45.048;5.062;2023-05-03T01:30:09;99997.78;;;11.89;77.81
57376;BME280;44805;45.048;5.062;2023-05-03T01:38:14;99995.56;;;11.84;78.04
57376;BME280;44805;45.048;5.062;2023-05-03T01:40:48;100010.00;;;11.80;78.46
57376;BME280;44805;45.048;5.062;2023-05-03T01:43:15;100001.66;;;11.85;78.31
57376;BME280;44805;45.048;5.062;2023-05-03T01:45:41;100012.75;;;11.70;78.73
57376;BME280;44805;45.048;5.062;2023-05-03T01:48:13;100001.56;;;11.59;79.55
57376;BME280;44805;45.048;5.062;2023-05-03T01:50:38;99999.66;;;11.51;80.24
57376;BME280;44805;45.048;5.062;2023-05-03T01:53:04;99968.06;;;11.41;79.13
57376;BME280;44805;45.048;5.062;2023-05-03T01:55:29;99988.91;;;11.35;80.13
57376;BME280;44805;45.048;5.062;2023-05-03T01:57:55;99990.59;;;11.36;79.71
57376;BME280;44805;45.048;5.062;2023-05-03T02:00:20;100002.44;;;11.49;79.80
57376;BME280;44805;45.048;5.062;2023-05-03T02:02:46;99955.13;;;11.30;79.96
57376;BME280;44805;45.048;5.062;2023-05-03T02:05:11;99932.19;;;11.13;80.06
57376;BME280;44805;45.048;5.062;2023-05-03T02:07:49;99993.56;;;11.50;79.90
57376;BME280;44805;45.048;5.062;2023-05-03T02:10:14;100011.34;;;11.48;79.41
57376;BME280;44805;45.048;5.062;2023-05-03T02:12:41;100006.50;;;11.44;80.11
57376;BME280;44805;45.048;5.062;2023-05-03T02:15:07;99948.69;;;11.15;80.23
57376;BME280;44805;45.048;5.062;2023-05-03T02:17:33;99979.50;;;11.32;79.88
57376;BME280;44805;45.048;5.062;2023-05-03T02:19:59;99944.75;;;11.19;78.93
57376;BME280;44805;45.048;5.062;2023-05-03T02:25:46;99983.91;;;11.41;79.35
57376;BME280;44805;45.048;5.062;2023-05-03T02:28:12;99997.25;;;11.40;79.67
57376;BME280;44805;45.048;5.062;2023-05-03T02:30:37;100000.41;;;11.43;79.77
57376;BME280;44805;45.048;5.062;2023-05-03T02:33:02;100000.28;;;11.45;79.23
57376;BME280;44805;45.048;5.062;2023-05-03T02:35:28;100007.84;;;11.30;79.77
57376;BME280;44805;45.048;5.062;2023-05-03T02:37:54;100016.41;;;11.32;79.56
57376;BME280;44805;45.048;5.062;2023-05-03T02:40:19;99992.44;;;11.25;79.08
57376;BME280;44805;45.048;5.062;2023-05-03T02:42:45;100009.09;;;11.26;79.06
57376;BME280;44805;45.048;5.062;2023-05-03T02:45:11;100014.75;;;11.31;79.99
57376;BME280;44805;45.048;5.062;2023-05-03T02:47:36;100027.56;;;11.16;80.23
57376;BME280;44805;45.048;5.062;2023-05-03T02:50:02;99980.28;;;10.87;80.93
57376;BME280;44805;45.048;5.062;2023-05-03T02:52:58;100020.88;;;11.22;80.34
57376;BME280;44805;45.048;5.062;2023-05-03T02:55:24;100013.28;;;11.19;81.16
57376;BME280;44805;45.048;5.062;2023-05-03T02:57:49;100009.00;;;11.18;81.16
57376;BME280;44805;45.048;5.062;2023-05-03T03:00:15;100006.38;;;11.18;79.78
57376;BME280;44805;45.048;5.062;2023-05-03T03:02:40;100017.25;;;11.33;80.83
57376;BME280;44805;45.048;5.062;2023-05-03T03:05:06;99980.69;;;10.92;80.81
57376;BME280;44805;45.048;5.062;2023-05-03T03:07:38;99958.97;;;10.71;81.38
57376;BME280;44805;45.048;5.062;2023-05-03T03:10:05;99965.63;;;10.75;81.69
57376;BME280;44805;45.048;5.062;2023-05-03T03:12:32;100015.28;;;11.07;81.47
57376;BME280;44805;45.048;5.062;2023-05-03T03:14:58;99969.56;;;10.61;82.61
57376;BME280;44805;45.048;5.062;2023-05-03T03:17:23;99967.09;;;10.50;83.04
57376;BME280;44805;45.048;5.062;2023-05-03T03:19:49;100002.59;;;10.83;82.76
57376;BME280;44805;45.048;5.062;2023-05-03T03:22:14;100010.09;;;10.88;82.13
57376;BME280;44805;45.048;5.062;2023-05-03T03:24:39;99946.59;;;10.43;82.00
57376;BME280;44805;45.048;5.062;2023-05-03T03:27:05;99968.72;;;10.60;81.73
57376;BME280;44805;45.048;5.062;2023-05-03T03:29:31;99980.00;;;10.90;79.45
57376;BME280;44805;45.048;5.062;2023-05-03T03:31:57;99936.69;;;10.65;80.11
57376;BME280;44805;45.048;5.062;2023-05-03T03:34:23;100011.38;;;11.11;80.20
57376;BME280;44805;45.048;5.062;2023-05-03T03:40:10;99977.31;;;10.62;81.50
57376;BME280;44805;45.048;5.062;2023-05-03T03:42:35;99996.66;;;10.81;81.51
57376;BME280;44805;45.048;5.062;2023-05-03T03:45:01;99943.78;;;10.55;81.24
57376;BME280;44805;45.048;5.062;2023-05-03T03:47:26;100012.44;;;10.81;81.39
57376;BME280;44805;45.048;5.062;2023-05-03T03:49:52;100009.72;;;10.63;82.11
57376;BME280;44805;45.048;5.062;2023-05-03T03:52:37;100005.31;;;10.54;83.36
57376;BME280;44805;45.048;5.062;2023-05-03T03:55:03;100007.41;;;10.50;82.56
57376;BME280;44805;45.048;5.062;2023-05-03T03:57:28;99984.97;;;10.56;81.86
57376;BME280;44805;45.048;5.062;2023-05-03T03:59:56;99993.38;;;10.59;81.33
57376;BME280;44805;45.048;5.062;2023-05-03T04:02:21;100008.38;;;10.49;82.13
57376;BME280;44805;45.048;5.062;2023-05-03T04:04:48;99938.88;;;10.13;82.14
57376;BME280;44805;45.048;5.062;2023-05-03T04:07:14;100008.66;;;10.46;82.88
57376;BME280;44805;45.048;5.062;2023-05-03T04:09:39;99931.41;;;9.89;83.61
57376;BME280;44805;45.048;5.062;2023-05-03T04:12:04;99919.25;;;9.78;83.69
57376;BME280;44805;45.048;5.062;2023-05-03T04:14:30;100005.88;;;10.38;83.07
57376;BME280;44805;45.048;5.062;2023-05-03T04:16:55;100005.34;;;10.34;84.09
57376;BME280;44805;45.048;5.062;2023-05-03T04:19:21;100003.81;;;10.32;83.89
57376;BME280;44805;45.048;5.062;2023-05-03T04:21:47;100010.72;;;10.52;82.54
57376;BME280;44805;45.048;5.062;2023-05-03T04:24:16;99951.75;;;10.06;83.18
57376;BME280;44805;45.048;5.062;2023-05-03T04:26:42;100003.00;;;10.41;82.87
57376;BME280;44805;45.048;5.062;2023-05-03T04:29:08;99956.31;;;10.04;83.81
57376;BME280;44805;45.048;5.062;2023-05-03T04:31:35;99988.16;;;10.20;83.77
57376;BME280;44805;45.048;5.062;2023-05-03T04:34:00;99967.13;;;10.01;83.81
57376;BME280;44805;45.048;5.062;2023-05-03T04:39:47;100000.63;;;10.09;84.65
57376;BME280;44805;45.048;5.062;2023-05-03T04:42:13;99975.16;;;9.90;85.71
57376;BME280;44805;45.048;5.062;2023-05-03T04:44:41;100015.00;;;10.14;84.75
57376;BME280;44805;45.048;5.062;2023-05-03T04:47:07;100000.09;;;10.05;84.95
57376;BME280;44805;45.048;5.062;2023-05-03T04:49:33;99986.34;;;10.02;86.02
57376;BME280;44805;45.048;5.062;2023-05-03T04:55:20;99971.28;;;10.04;84.88
57376;BME280;44805;45.048;5.062;2023-05-03T04:57:45;99984.56;;;10.21;85.22
57376;BME280;44805;45.048;5.062;2023-05-03T05:00:11;99998.13;;;10.27;84.30
57376;BME280;44805;45.048;5.062;2023-05-03T05:02:37;100005.06;;;10.47;83.85
57376;BME280;44805;45.048;5.062;2023-05-03T05:05:03;99938.34;;;9.90;84.57
57376;BME280;44805;45.048;5.062;2023-05-03T05:07:38;99987.88;;;10.24;85.04
57376;BME280;44805;45.048;5.062;2023-05-03T05:10:04;99967.66;;;10.05;84.98
57376;BME280;44805;45.048;5.062;2023-05-03T05:12:30;99914.22;;;9.94;83.91
57376;BME280;44805;45.048;5.062;2023-05-03T05:14:55;99947.44;;;10.15;84.05
57376;BME280;44805;45.048;5.062;2023-05-03T05:17:22;100002.41;;;10.57;83.32
57376;BME280;44805;45.048;5.062;2023-05-03T05:19:47;99975.25;;;10.56;83.85
57376;BME280;44805;45.048;5.062;2023-05-03T05:22:44;100016.66;;;10.74;82.97
57376;BME280;44805;45.048;5.062;2023-05-03T05:25:09;99995.34;;;10.57;82.93
57376;BME280;44805;45.048;5.062;2023-05-03T05:27:35;99994.78;;;10.63;82.33
57376;BME280;44805;45.048;5.062;2023-05-03T05:30:01;100001.16;;;10.61;83.36
57376;BME280;44805;45.048;5.062;2023-05-03T05:32:26;99970.94;;;10.55;82.96
57376;BME280;44805;45.048;5.062;2023-05-03T05:34:52;99946.59;;;10.43;82.66
57376;BME280;44805;45.048;5.062;2023-05-03T05:40:23;100025.22;;;10.76;82.89
57376;BME280;44805;45.048;5.062;2023-05-03T05:42:49;99944.94;;;10.33;82.37
57376;BME280;44805;45.048;5.062;2023-05-03T05:45:14;100030.16;;;10.98;82.34
57376;BME280;44805;45.048;5.062;2023-05-03T05:47:40;99999.41;;;10.89;81.64
57376;BME280;44805;45.048;5.062;2023-05-03T05:50:05;99976.97;;;10.85;80.69
57376;BME280;44805;45.048;5.062;2023-05-03T05:56:18;100044.56;;;11.32;80.41
57376;BME280;44805;45.048;5.062;2023-05-03T05:58:43;100042.47;;;11.45;79.34
57376;BME280;44805;45.048;5.062;2023-05-03T06:01:08;100024.22;;;11.24;79.11
57376;BME280;44805;45.048;5.062;2023-05-03T06:03:34;100045.34;;;11.42;78.48
57376;BME280;44805;45.048;5.062;2023-05-03T06:06:00;99991.63;;;10.97;78.93
57376;BME280;44805;45.048;5.062;2023-05-03T06:08:25;100014.78;;;11.21;78.93
57376;BME280;44805;45.048;5.062;2023-05-03T06:10:51;100025.34;;;11.21;79.02
57376;BME280;44805;45.048;5.062;2023-05-03T06:13:17;100061.09;;;11.61;78.48
57376;BME280;44805;45.048;5.062;2023-05-03T06:15:43;100032.81;;;11.54;77.83
57376;BME280;44805;45.048;5.062;2023-05-03T06:18:08;100024.84;;;11.63;77.88
57376;BME280;44805;45.048;5.062;2023-05-03T06:20:34;99993.88;;;11.47;77.91
57376;BME280;44805;45.048;5.062;2023-05-03T06:22:59;100068.19;;;11.88;77.22
57376;BME280;44805;45.048;5.062;2023-05-03T06:25:25;100018.13;;;11.97;77.17
57376;BME280;44805;45.048;5.062;2023-05-03T06:27:51;100063.31;;;12.11;76.55
57376;BME280;44805;45.048;5.062;2023-05-03T06:30:16;100067.09;;;12.27;76.90
57376;BME280;44805;45.048;5.062;2023-05-03T06:32:42;100044.44;;;12.24;76.08
57376;BME280;44805;45.048;5.062;2023-05-03T06:35:08;100007.69;;;11.77;75.88
57376;BME280;44805;45.048;5.062;2023-05-03T06:37:54;100069.16;;;12.23;76.69
57376;BME280;44805;45.048;5.062;2023-05-03T06:40:19;100068.34;;;12.41;75.50
57376;BME280;44805;45.048;5.062;2023-05-03T06:42:46;100065.69;;;12.41;76.25
57376;BME280;44805;45.048;5.062;2023-05-03T06:45:12;100043.88;;;12.38;75.86
57376;BME280;44805;45.048;5.062;2023-05-03T06:47:37;100032.38;;;12.40;75.81
57376;BME280;44805;45.048;5.062;2023-05-03T06:50:06;100048.88;;;12.59;74.50
57376;BME280;44805;45.048;5.062;2023-05-03T06:52:32;100066.00;;;12.81;73.83
57376;BME280;44805;45.048;5.062;2023-05-03T06:54:58;100020.00;;;12.40;74.17
57376;BME280;44805;45.048;5.062;2023-05-03T06:57:23;100081.06;;;12.63;75.07
57376;BME280;44805;45.048;5.062;2023-05-03T06:59:49;100034.56;;;12.44;75.22
57376;BME280;44805;45.048;5.062;2023-05-03T07:02:16;100073.63;;;12.85;75.14
57376;BME280;44805;45.048;5.062;2023-05-03T07:04:41;100035.63;;;12.77;74.60
57376;BME280;44805;45.048;5.062;2023-05-03T07:07:07;100075.38;;;13.02;73.83
57376;BME280;44805;45.048;5.062;2023-05-03T07:09:32;100081.72;;;13.09;73.02
57376;BME280;44805;45.048;5.062;2023-05-03T07:11:57;100070.16;;;13.10;72.42
57376;BME280;44805;45.048;5.062;2023-05-03T07:14:23;100037.66;;;12.92;73.34
57376;BME280;44805;45.048;5.062;2023-05-03T07:16:48;100024.63;;;12.90;73.65
57376;BME280;44805;45.048;5.062;2023-05-03T07:19:14;100039.66;;;13.24;72.72
57376;BME280;44805;45.048;5.062;2023-05-03T07:21:54;100024.25;;;13.19;71.79
57376;BME280;44805;45.048;5.062;2023-05-03T07:24:20;100031.63;;;13.34;71.07
57376;BME280;44805;45.048;5.062;2023-05-03T07:26:45;100038.16;;;13.56;71.03
57376;BME280;44805;45.048;5.062;2023-05-03T07:29:11;100025.72;;;13.48;70.92
57376;BME280;44805;45.048;5.062;2023-05-03T07:31:37;100011.34;;;13.51;70.58
57376;BME280;44805;45.048;5.062;2023-05-03T07:34:02;100042.69;;;13.80;70.08
57376;BME280;44805;45.048;5.062;2023-05-03T07:36:28;100014.06;;;13.67;68.68
57376;BME280;44805;45.048;5.062;2023-05-03T07:38:53;100047.72;;;13.99;70.25
57376;BME280;44805;45.048;5.062;2023-05-03T07:41:18;100002.00;;;13.73;69.40
57376;BME280;44805;45.048;5.062;2023-05-03T07:43:44;100047.03;;;14.05;68.92
57376;BME280;44805;45.048;5.062;2023-05-03T07:46:09;100021.69;;;13.86;69.93
57376;BME280;44805;45.048;5.062;2023-05-03T07:48:35;100041.91;;;13.96;68.76
57376;BME280;44805;45.048;5.062;2023-05-03T07:51:02;100050.53;;;14.14;69.28
57376;BME280;44805;45.048;5.062;2023-05-03T07:53:28;100007.34;;;14.14;68.80
57376;BME280;44805;45.048;5.062;2023-05-03T07:55:54;99954.03;;;13.84;68.34
57376;BME280;44805;45.048;5.062;2023-05-03T07:58:20;100017.44;;;14.26;68.98
57376;BME280;44805;45.048;5.062;2023-05-03T08:00:45;99971.25;;;14.13;67.33
57376;BME280;44805;45.048;5.062;2023-05-03T08:03:11;100037.97;;;14.65;66.12
57376;BME280;44805;45.048;5.062;2023-05-03T08:05:36;99985.47;;;14.36;67.10
57376;BME280;44805;45.048;5.062;2023-05-03T08:08:11;99996.38;;;14.49;67.32
57376;BME280;44805;45.048;5.062;2023-05-03T08:10:38;99999.56;;;14.61;66.57
57376;BME280;44805;45.048;5.062;2023-05-03T08:13:04;99982.47;;;14.47;65.95
57376;BME280;44805;45.048;5.062;2023-05-03T08:15:32;100043.88;;;15.00;66.15
57376;BME280;44805;45.048;5.062;2023-05-03T08:17:58;100000.50;;;14.85;65.46
57376;BME280;44805;45.048;5.062;2023-05-03T08:20:24;100033.41;;;15.15;64.76
57376;BME280;44805;45.048;5.062;2023-05-03T08:22:51;99969.53;;;14.77;65.26
57376;BME280;44805;45.048;5.062;2023-05-03T08:25:21;100006.91;;;15.07;64.37
57376;BME280;44805;45.048;5.062;2023-05-03T08:27:47;100024.28;;;15.17;63.99
57376;BME280;44805;45.048;5.062;2023-05-03T08:30:13;99964.53;;;14.90;64.30
57376;BME280;44805;45.048;5.062;2023-05-03T08:32:39;99935.25;;;14.75;65.05
57376;BME280;44805;45.048;5.062;2023-05-03T08:35:04;100007.16;;;15.28;64.44
57376;BME280;44805;45.048;5.062;2023-05-03T08:37:45;99952.81;;;15.16;64.62
57376;BME280;44805;45.048;5.062;2023-05-03T08:40:11;100000.84;;;15.60;63.09
57376;BME280;44805;45.048;5.062;2023-05-03T08:42:42;99979.63;;;15.60;63.74
57376;BME280;44805;45.048;5.062;2023-05-03T08:45:10;99956.41;;;15.62;63.73
57376;BME280;44805;45.048;5.062;2023-05-03T08:47:37;99944.34;;;15.52;62.41
57376;BME280;44805;45.048;5.062;2023-05-03T08:50:05;99959.69;;;15.64;63.22
57376;BME280;44805;45.048;5.062;2023-05-03T08:52:32;99952.66;;;15.80;62.03
57376;BME280;44805;45.048;5.062;2023-05-03T08:54:58;100014.94;;;16.15;60.01
57376;BME280;44805;45.048;5.062;2023-05-03T08:57:24;99990.66;;;15.80;61.68
57376;BME280;44805;45.048;5.062;2023-05-03T08:59:50;99981.88;;;16.03;63.07
57376;BME280;44805;45.048;5.062;2023-05-03T09:02:23;100007.72;;;16.47;62.48
57376;BME280;44805;45.048;5.062;2023-05-03T09:04:48;100023.09;;;16.75;61.40
57376;BME280;44805;45.048;5.062;2023-05-03T09:07:19;99964.91;;;16.42;60.44
57376;BME280;44805;45.048;5.062;2023-05-03T09:09:45;99984.94;;;16.67;59.50
57376;BME280;44805;45.048;5.062;2023-05-03T09:12:11;99989.16;;;16.62;60.18
57376;BME280;44805;45.048;5.062;2023-05-03T09:14:44;100010.75;;;16.59;61.51
57376;BME280;44805;45.048;5.062;2023-05-03T09:17:15;100016.06;;;16.82;61.22
57376;BME280;44805;45.048;5.062;2023-05-03T09:19:56;99998.06;;;16.69;61.06
57376;BME280;44805;45.048;5.062;2023-05-03T09:22:49;99990.06;;;16.69;60.77
57376;BME280;44805;45.048;5.062;2023-05-03T09:25:15;100012.38;;;16.83;60.39
57376;BME280;44805;45.048;5.062;2023-05-03T09:27:41;100011.75;;;17.25;58.78
57376;BME280;44805;45.048;5.062;2023-05-03T09:30:17;99982.50;;;17.10;58.69
57376;BME280;44805;45.048;5.062;2023-05-03T09:32:48;99978.78;;;17.41;59.10
57376;BME280;44805;45.048;5.062;2023-05-03T09:35:14;99995.94;;;17.75;58.35
57376;BME280;44805;45.048;5.062;2023-05-03T09:37:39;99953.50;;;17.16;57.93
57376;BME280;44805;45.048;5.062;2023-05-03T09:40:05;100003.78;;;17.62;57.16
57376;BME280;44805;45.048;5.062;2023-05-03T09:42:35;99969.59;;;17.29;57.31
57376;BME280;44805;45.048;5.062;2023-05-03T09:45:01;99998.13;;;17.86;57.00
57376;BME280;44805;45.048;5.062;2023-05-03T09:47:26;100008.41;;;18.11;57.62
57376;BME280;44805;45.048;5.062;2023-05-03T09:49:52;99958.56;;;18.05;55.60
57376;BME280;44805;45.048;5.062;2023-05-03T09:52:35;99973.66;;;18.47;55.43
57376;BME280;44805;45.048;5.062;2023-05-03T09:55:02;99999.13;;;18.78;54.62
57376;BME280;44805;45.048;5.062;2023-05-03T09:57:28;99974.28;;;18.77;54.85
57376;BME280;44805;45.048;5.062;2023-05-03T09:59:53;100029.84;;;19.02;54.07
57376;BME280;44805;45.048;5.062;2023-05-03T10:02:20;99961.97;;;18.76;54.21
57376;BME280;44805;45.048;5.062;2023-05-03T10:04:50;99980.00;;;19.09;54.08
57376;BME280;44805;45.048;5.062;2023-05-03T10:07:21;99991.53;;;19.16;54.32
57376;BME280;44805;45.048;5.062;2023-05-03T10:09:49;99959.09;;;19.19;53.42
57376;BME280;44805;45.048;5.062;2023-05-03T10:12:15;99914.00;;;18.90;52.19
57376;BME280;44805;45.048;5.062;2023-05-03T10:14:46;100014.47;;;19.59;52.46
57376;BME280;44805;45.048;5.062;2023-05-03T10:17:15;99929.31;;;19.16;52.16
57376;BME280;44805;45.048;5.062;2023-05-03T10:19:59;100005.47;;;19.66;51.27
57376;BME280;44805;45.048;5.062;2023-05-03T10:22:28;99992.34;;;19.71;49.73
57376;BME280;44805;45.048;5.062;2023-05-03T10:27:49;99964.06;;;20.10;50.37
57376;BME280;44805;45.048;5.062;2023-05-03T10:32:50;99909.75;;;20.16;50.76
57376;BME280;44805;45.048;5.062;2023-05-03T10:35:16;99942.44;;;20.45;48.72
57376;BME280;44805;45.048;5.062;2023-05-03T10:37:47;99945.97;;;20.19;50.70
57376;BME280;44805;45.048;5.062;2023-05-03T10:40:14;99984.81;;;20.75;49.80
57376;BME280;44805;45.048;5.062;2023-05-03T10:42:48;99925.59;;;20.31;50.38
57376;BME280;44805;45.048;5.062;2023-05-03T10:45:25;99916.94;;;20.56;49.09
57376;BME280;44805;45.048;5.062;2023-05-03T10:50:39;99971.28;;;21.21;48.94
57376;BME280;44805;45.048;5.062;2023-05-03T10:53:05;99925.94;;;20.75;48.45
57376;BME280;44805;45.048;5.062;2023-05-03T10:55:33;99889.16;;;20.37;48.42
57376;BME280;44805;45.048;5.062;2023-05-03T10:57:59;99938.50;;;20.74;47.86
57376;BME280;44805;45.048;5.062;2023-05-03T11:00:37;99959.69;;;20.89;47.92
57376;BME280;44805;45.048;5.062;2023-05-03T11:05:43;99877.41;;;20.51;47.42
57376;BME280;44805;45.048;5.062;2023-05-03T11:08:12;99963.09;;;21.10;48.50
57376;BME280;44805;45.048;5.062;2023-05-03T11:10:39;99888.22;;;20.90;47.30
57376;BME280;44805;45.048;5.062;2023-05-03T11:13:05;99884.38;;;20.66;48.43
57376;BME280;44805;45.048;5.062;2023-05-03T11:15:31;99876.53;;;20.84;47.11
57376;BME280;44805;45.048;5.062;2023-05-03T11:17:57;99920.94;;;21.43;47.63
57376;BME280;44805;45.048;5.062;2023-05-03T11:20:23;99947.97;;;21.74;46.11
57376;BME280;44805;45.048;5.062;2023-05-03T11:22:48;99913.41;;;21.65;46.48
57376;BME280;44805;45.048;5.062;2023-05-03T11:25:14;99919.59;;;21.59;46.56
57376;BME280;44805;45.048;5.062;2023-05-03T11:27:43;99871.66;;;21.51;45.81
57376;BME280;44805;45.048;5.062;2023-05-03T11:30:11;99864.31;;;21.65;46.04
57376;BME280;44805;45.048;5.062;2023-05-03T11:32:37;99940.06;;;22.36;44.94
57376;BME280;44805;45.048;5.062;2023-05-03T11:35:05;99882.00;;;22.23;45.00
57376;BME280;44805;45.048;5.062;2023-05-03T11:40:46;99905.13;;;22.24;44.34
57376;BME280;44805;45.048;5.062;2023-05-03T11:43:11;99891.94;;;22.16;43.35
57376;BME280;44805;45.048;5.062;2023-05-03T11:45:45;99928.78;;;22.52;43.67
57376;BME280;44805;45.048;5.062;2023-05-03T11:48:14;99929.66;;;22.64;43.51
57376;BME280;44805;45.048;5.062;2023-05-03T11:50:48;99843.66;;;22.22;44.66
57376;BME280;44805;45.048;5.062;2023-05-03T11:53:17;99890.31;;;22.58;44.74
57376;BME280;44805;45.048;5.062;2023-05-03T11:55:45;99888.75;;;22.50;44.02
57376;BME280;44805;45.048;5.062;2023-05-03T11:58:16;99833.97;;;22.21;43.45
57376;BME280;44805;45.048;5.062;2023-05-03T12:00:45;99868.53;;;22.29;43.37
57376;BME280;44805;45.048;5.062;2023-05-03T12:03:18;99862.56;;;22.27;44.22
57376;BME280;44805;45.048;5.062;2023-05-03T12:05:45;99869.88;;;22.39;43.54
57376;BME280;44805;45.048;5.062;2023-05-03T12:08:10;99837.41;;;22.47;44.11
57376;BME280;44805;45.048;5.062;2023-05-03T12:10:36;99825.63;;;22.48;43.07
57376;BME280;44805;45.048;5.062;2023-05-03T12:13:02;99852.88;;;22.63;44.51
57376;BME280;44805;45.048;5.062;2023-05-03T12:15:29;99843.56;;;22.66;42.76
57376;BME280;44805;45.048;5.062;2023-05-03T12:17:57;99859.44;;;22.49;42.17
57376;BME280;44805;45.048;5.062;2023-05-03T12:20:23;99849.97;;;22.46;42.69
57376;BME280;44805;45.048;5.062;2023-05-03T12:26:29;99825.00;;;22.64;42.49
57376;BME280;44805;45.048;5.062;2023-05-03T12:28:55;99825.13;;;22.69;41.67
57376;BME280;44805;45.048;5.062;2023-05-03T12:31:22;99816.47;;;22.86;40.83
57376;BME280;44805;45.048;5.062;2023-05-03T12:33:48;99812.91;;;22.73;39.99
57376;BME280;44805;45.048;5.062;2023-05-03T12:36:21;99823.81;;;22.60;39.21
57376;BME280;44805;45.048;5.062;2023-05-03T12:38:46;99855.00;;;23.10;39.70
57376;BME280;44805;45.048;5.062;2023-05-03T12:41:12;99805.28;;;22.40;39.00
57376;BME280;44805;45.048;5.062;2023-05-03T12:43:43;99827.88;;;22.81;40.08
57376;BME280;44805;45.048;5.062;2023-05-03T12:46:08;99835.81;;;22.76;38.79
57376;BME280;44805;45.048;5.062;2023-05-03T12:48:34;99823.53;;;22.50;39.46
57376;BME280;44805;45.048;5.062;2023-05-03T12:50:59;99832.91;;;22.59;37.85
57376;BME280;44805;45.048;5.062;2023-05-03T12:56:46;99833.13;;;22.76;39.81
57376;BME280;44805;45.048;5.062;2023-05-03T12:59:12;99860.56;;;23.27;39.60
57376;BME280;44805;45.048;5.062;2023-05-03T13:01:38;99812.56;;;23.30;39.23
57376;BME280;44805;45.048;5.062;2023-05-03T13:04:04;99807.94;;;23.07;39.21
57376;BME280;44805;45.048;5.062;2023-05-03T13:06:29;99807.03;;;23.13;39.03
57376;BME280;44805;45.048;5.062;2023-05-03T13:08:56;99808.31;;;23.11;37.72
57376;BME280;44805;45.048;5.062;2023-05-03T13:11:22;99802.00;;;22.87;37.73
57376;BME280;44805;45.048;5.062;2023-05-03T13:13:51;99802.56;;;23.07;38.07
57376;BME280;44805;45.048;5.062;2023-05-03T13:16:17;99797.78;;;22.98;35.69
57376;BME280;44805;45.048;5.062;2023-05-03T13:18:44;99760.78;;;22.81;36.42
57376;BME280;44805;45.048;5.062;2023-05-03T13:21:09;99801.25;;;23.40;35.47
57376;BME280;44805;45.048;5.062;2023-05-03T13:23:36;99801.19;;;23.58;34.79
57376;BME280;44805;45.048;5.062;2023-05-03T13:26:01;99768.75;;;23.30;31.87
57376;BME280;44805;45.048;5.062;2023-05-03T13:28:27;99798.44;;;23.35;30.53
57376;BME280;44805;45.048;5.062;2023-05-03T13:30:52;99741.56;;;22.96;32.07
57376;BME280;44805;45.048;5.062;2023-05-03T13:33:18;99742.78;;;23.12;32.62
57376;BME280;44805;45.048;5.062;2023-05-03T13:35:44;99773.41;;;23.11;32.99
57376;BME280;44805;45.048;5.062;2023-05-03T13:40:52;99745.50;;;22.82;31.90
57376;BME280;44805;45.048;5.062;2023-05-03T13:43:19;99749.97;;;22.88;32.75
57376;BME280;44805;45.048;5.062;2023-05-03T13:45:46;99783.28;;;22.99;33.76
57376;BME280;44805;45.048;5.062;2023-05-03T13:48:11;99779.84;;;23.22;34.00
57376;BME280;44805;45.048;5.062;2023-05-03T13:50:37;99805.69;;;23.34;33.47